Time;durP1;ratioP1;P1;durP2;ratioP2;P2;SDS_P1;SDS_P2;PMS_P1;PMS_P2;Temp;Humidity;BMP_temperature;BMP_pressure;BME280_temperature;BME280_humidity;BME280_pressure;Samples;Min_cycle;Max_cycle;Signal;HPM_P1;HPM_P2
2022/02/01 00:00:44;;;;;;;119.20;51.10;;;;;;;;;;4443943;32;20281;-82
2022/02/01 00:03:15;;;;;;;76.77;40.90;;;;;;;;;;4445445;32;20229;-89
2022/02/01 00:11:21;;;;;;;124.00;55.90;;;;;;;;;;4447773;32;20227;-82
2022/02/01 00:18:36;;;;;;;83.90;41.67;;;;;;;;;;4468569;32;20216;-81
2022/02/01 00:37:31;;;;;;;143.10;63.23;;;;;;;;;;4466033;32;20296;-82
2022/02/01 00:39:59;;;;;;;133.70;60.80;;;;;;;;;;4438929;32;20357;-82
2022/02/01 00:42:24;;;;;;;113.13;56.97;;;;;;;;;;4457824;32;20694;-82
2022/02/01 00:44:50;;;;;;;139.60;57.63;;;;;;;;;;4468875;32;20216;-80
2022/02/01 00:47:16;;;;;;;125.73;56.50;;;;;;;;;;4467788;32;20257;-81
2022/02/01 00:49:42;;;;;;;134.83;60.07;;;;;;;;;;4468333;32;20247;-86
2022/02/01 00:52:08;;;;;;;133.70;59.40;;;;;;;;;;4468042;32;20261;-83
2022/02/01 00:54:34;;;;;;;142.20;61.77;;;;;;;;;;4454494;32;20319;-89
2022/02/01 00:56:59;;;;;;;131.73;60.20;;;;;;;;;;4467447;32;20322;-84
2022/02/01 00:59:25;;;;;;;132.70;61.97;;;;;;;;;;4458380;32;20308;-82
2022/02/01 01:01:51;;;;;;;132.83;59.83;;;;;;;;;;4454725;32;20564;-84
2022/02/01 01:04:17;;;;;;;143.80;60.40;;;;;;;;;;4454622;32;20336;-82
2022/02/01 01:06:42;;;;;;;124.37;61.60;;;;;;;;;;4437964;32;20232;-84
2022/02/01 01:09:08;;;;;;;125.77;56.90;;;;;;;;;;4453612;32;20271;-85
2022/02/01 01:11:33;;;;;;;138.50;59.87;;;;;;;;;;4439620;32;20743;-85
2022/02/01 01:43:42;;;;;;;136.23;62.50;;;;;;;;;;4451316;32;20257;-81
2022/02/01 01:54:16;;;;;;;108.67;50.23;;;;;;;;;;4417077;32;20239;-81
2022/02/01 01:56:42;;;;;;;107.70;47.33;;;;;;;;;;4459665;32;20254;-80
2022/02/01 01:59:09;;;;;;;104.57;46.27;;;;;;;;;;4460132;32;20212;-80
2022/02/01 02:01:35;;;;;;;95.47;44.63;;;;;;;;;;4441549;32;20244;-80
2022/02/01 02:04:02;;;;;;;97.27;41.43;;;;;;;;;;4449732;32;20327;-80
2022/02/01 02:06:28;;;;;;;93.93;41.57;;;;;;;;;;4444291;32;20305;-79
2022/02/01 02:08:55;;;;;;;79.70;39.77;;;;;;;;;;4444290;32;20291;-80
2022/02/01 02:11:41;;;;;;;102.40;46.27;;;;;;;;;;4442229;32;20388;-81
2022/02/01 02:14:25;;;;;;;94.37;44.70;;;;;;;;;;4436910;32;20221;-82
2022/02/01 02:17:00;;;;;;;98.43;47.53;;;;;;;;;;4436063;32;20527;-82
2022/02/01 02:19:28;;;;;;;96.73;48.47;;;;;;;;;;4435024;32;20556;-82
2022/02/01 02:21:56;;;;;;;108.07;47.80;;;;;;;;;;4434552;32;20327;-82
2022/02/01 02:24:24;;;;;;;98.17;45.50;;;;;;;;;;4434938;32;20259;-84
2022/02/01 02:26:50;;;;;;;117.33;50.27;;;;;;;;;;4435050;32;20304;-89
2022/02/01 02:29:17;;;;;;;124.70;47.93;;;;;;;;;;4435092;32;20231;-87
2022/02/01 02:31:43;;;;;;;104.10;44.73;;;;;;;;;;4434916;32;20252;-83
2022/02/01 02:34:13;;;;;;;90.77;40.47;;;;;;;;;;4434856;32;20331;-85
2022/02/01 02:36:45;;;;;;;69.10;34.60;;;;;;;;;;4435150;32;20559;-81
2022/02/01 02:47:13;;;;;;;112.60;50.03;;;;;;;;;;4435009;32;20283;-81
2022/02/01 02:49:38;;;;;;;100.40;47.03;;;;;;;;;;4434686;32;20233;-80
2022/02/01 02:52:04;;;;;;;95.97;46.80;;;;;;;;;;4434706;32;20279;-82
2022/02/01 02:54:29;;;;;;;98.87;49.33;;;;;;;;;;4420500;32;20291;-81
2022/02/01 02:56:59;;;;;;;136.53;66.07;;;;;;;;;;4434781;32;20217;-85
2022/02/01 02:59:26;;;;;;;142.20;64.40;;;;;;;;;;4420363;32;20232;-80
2022/02/01 03:01:52;;;;;;;134.30;62.00;;;;;;;;;;4434677;32;20231;-81
2022/02/01 03:04:20;;;;;;;113.43;54.57;;;;;;;;;;4445119;32;20244;-82
2022/02/01 03:06:46;;;;;;;116.03;56.20;;;;;;;;;;4450023;32;20205;-81
2022/02/01 03:09:13;;;;;;;114.53;52.90;;;;;;;;;;4449844;32;20254;-82
2022/02/01 03:11:39;;;;;;;99.53;47.10;;;;;;;;;;4450166;32;20641;-81
2022/02/01 03:14:18;;;;;;;98.33;45.90;;;;;;;;;;4435753;32;20232;-83
2022/02/01 03:16:55;;;;;;;105.67;51.00;;;;;;;;;;4449662;32;20787;-83
2022/02/01 03:22:04;;;;;;;115.23;51.50;;;;;;;;;;4449689;32;20243;-84
2022/02/01 03:24:30;;;;;;;97.53;50.43;;;;;;;;;;4449565;32;20220;-84
2022/02/01 03:26:56;;;;;;;95.10;49.63;;;;;;;;;;4449605;32;20796;-82
2022/02/01 03:29:22;;;;;;;92.50;44.77;;;;;;;;;;4422477;32;20312;-83
2022/02/01 03:31:48;;;;;;;78.37;39.47;;;;;;;;;;4449629;32;20620;-83
2022/02/01 03:34:13;;;;;;;78.50;41.60;;;;;;;;;;4450171;32;20323;-84
2022/02/01 03:36:39;;;;;;;104.90;43.57;;;;;;;;;;4452818;32;20732;-85
2022/02/01 03:39:04;;;;;;;80.60;41.53;;;;;;;;;;4435976;32;20299;-81
2022/02/01 03:41:30;;;;;;;89.30;39.70;;;;;;;;;;4449615;32;20208;-82
2022/02/01 03:43:56;;;;;;;92.77;43.13;;;;;;;;;;4435406;32;20231;-81
2022/02/01 03:46:21;;;;;;;88.83;43.43;;;;;;;;;;4435153;32;20217;-79
2022/02/01 03:48:48;;;;;;;94.70;42.53;;;;;;;;;;4433549;32;20251;-81
2022/02/01 03:51:14;;;;;;;131.77;56.30;;;;;;;;;;4433964;32;20322;-81
2022/02/01 03:53:40;;;;;;;110.90;47.00;;;;;;;;;;4433934;32;20252;-81
2022/02/01 03:56:06;;;;;;;93.27;39.13;;;;;;;;;;4433608;32;20219;-82
2022/02/01 03:58:31;;;;;;;84.93;40.83;;;;;;;;;;4433591;32;20287;-84
2022/02/01 04:00:57;;;;;;;101.27;46.83;;;;;;;;;;4433587;32;20598;-80
2022/02/01 04:03:24;;;;;;;91.53;42.03;;;;;;;;;;4433568;32;20307;-80
2022/02/01 04:05:49;;;;;;;78.03;37.23;;;;;;;;;;4434108;32;20248;-80
2022/02/01 04:08:17;;;;;;;92.10;39.93;;;;;;;;;;4433731;32;20599;-82
2022/02/01 04:10:44;;;;;;;80.63;38.50;;;;;;;;;;4433772;32;20258;-85
2022/02/01 04:13:09;;;;;;;79.43;38.43;;;;;;;;;;4433690;32;20663;-80
2022/02/01 04:15:34;;;;;;;76.47;34.47;;;;;;;;;;4433958;32;20229;-81
2022/02/01 04:18:00;;;;;;;67.20;35.03;;;;;;;;;;4434013;32;20735;-82
2022/02/01 04:20:26;;;;;;;87.00;36.93;;;;;;;;;;4432243;32;20665;-82
2022/02/01 04:22:52;;;;;;;82.50;37.57;;;;;;;;;;4433790;32;20605;-81
2022/02/01 04:25:19;;;;;;;86.53;43.77;;;;;;;;;;4433708;32;20297;-81
2022/02/01 04:27:44;;;;;;;99.27;42.80;;;;;;;;;;4433617;32;20243;-86
2022/02/01 04:30:12;;;;;;;79.63;40.67;;;;;;;;;;4433425;32;20324;-81
2022/02/01 04:32:40;;;;;;;83.10;43.80;;;;;;;;;;4433060;32;20260;-82
2022/02/01 04:35:09;;;;;;;96.27;40.83;;;;;;;;;;4432398;32;20363;-81
2022/02/01 04:37:36;;;;;;;86.37;37.53;;;;;;;;;;4432041;32;20237;-86
2022/02/01 04:40:03;;;;;;;73.43;36.37;;;;;;;;;;4434227;32;20275;-81
2022/02/01 04:42:32;;;;;;;80.80;39.20;;;;;;;;;;4442677;32;20680;-82
2022/02/01 04:44:59;;;;;;;79.50;33.57;;;;;;;;;;4447240;32;20645;-83
2022/02/01 04:47:29;;;;;;;58.73;31.57;;;;;;;;;;4436875;32;20249;-82
2022/02/01 04:49:55;;;;;;;60.10;29.47;;;;;;;;;;4436971;32;20217;-88
2022/02/01 04:52:20;;;;;;;58.33;29.73;;;;;;;;;;4436768;32;20292;-85
2022/02/01 04:54:46;;;;;;;68.07;29.93;;;;;;;;;;4436546;32;20311;-82
2022/02/01 04:57:11;;;;;;;56.50;28.70;;;;;;;;;;4440422;32;20208;-80
2022/02/01 04:59:37;;;;;;;52.93;28.10;;;;;;;;;;4452321;32;20293;-85
2022/02/01 05:02:03;;;;;;;63.17;30.80;;;;;;;;;;4452436;32;20247;-83
2022/02/01 05:04:28;;;;;;;74.30;34.50;;;;;;;;;;4425938;32;20333;-88
2022/02/01 05:06:54;;;;;;;85.57;35.57;;;;;;;;;;4436576;32;20205;-83
2022/02/01 05:09:21;;;;;;;85.23;39.17;;;;;;;;;;4436506;32;20635;-84
2022/02/01 05:11:49;;;;;;;93.77;41.37;;;;;;;;;;4436689;32;20324;-89
2022/02/01 05:14:20;;;;;;;93.27;43.67;;;;;;;;;;4436818;32;20227;-82
2022/02/01 05:22:12;;;;;;;90.33;45.20;;;;;;;;;;4435880;32;20236;-82
2022/02/01 05:24:39;;;;;;;86.00;44.27;;;;;;;;;;4442826;32;20275;-82
2022/02/01 05:27:09;;;;;;;90.00;45.00;;;;;;;;;;4436175;32;20259;-83
2022/02/01 05:29:35;;;;;;;103.90;49.77;;;;;;;;;;4436473;32;20251;-81
2022/02/01 05:32:06;;;;;;;105.50;49.87;;;;;;;;;;4436395;32;20208;-82
2022/02/01 05:34:32;;;;;;;90.50;42.67;;;;;;;;;;4435990;32;20217;-78
2022/02/01 05:36:57;;;;;;;96.23;45.33;;;;;;;;;;4436221;32;20260;-83
2022/02/01 05:39:24;;;;;;;121.83;59.60;;;;;;;;;;4436025;32;20319;-87
2022/02/01 05:41:52;;;;;;;146.00;69.53;;;;;;;;;;4436053;32;20261;-82
2022/02/01 05:44:18;;;;;;;131.27;62.27;;;;;;;;;;4435688;32;20768;-83
2022/02/01 05:46:43;;;;;;;131.30;59.17;;;;;;;;;;4421508;32;20414;-81
2022/02/01 05:49:10;;;;;;;111.17;53.17;;;;;;;;;;4435555;32;20240;-84
2022/02/01 05:51:35;;;;;;;104.23;53.40;;;;;;;;;;4435506;32;20249;-88
2022/02/01 05:54:01;;;;;;;100.53;49.20;;;;;;;;;;4435952;32;20213;-89
2022/02/01 05:56:29;;;;;;;90.57;46.73;;;;;;;;;;4435671;32;20587;-87
2022/02/01 05:58:54;;;;;;;87.13;43.43;;;;;;;;;;4435858;32;20256;-89
2022/02/01 06:01:20;;;;;;;73.67;35.80;;;;;;;;;;4435034;32;20243;-88
2022/02/01 06:03:47;;;;;;;75.53;37.80;;;;;;;;;;4443022;32;20216;-83
2022/02/01 06:06:12;;;;;;;72.87;36.13;;;;;;;;;;4451005;32;20216;-89
2022/02/01 06:08:37;;;;;;;74.47;37.60;;;;;;;;;;4436816;32;20251;-89
2022/02/01 06:11:03;;;;;;;70.77;33.50;;;;;;;;;;4450996;32;20335;-89
2022/02/01 06:13:28;;;;;;;61.47;30.67;;;;;;;;;;4436649;32;20248;-92
2022/02/01 06:15:54;;;;;;;63.40;31.17;;;;;;;;;;4436159;32;20252;-90
2022/02/01 06:18:20;;;;;;;59.97;32.43;;;;;;;;;;4452009;32;20209;-94
2022/02/01 06:20:46;;;;;;;85.83;36.47;;;;;;;;;;4427627;32;20252;-93
2022/02/01 06:23:16;;;;;;;76.37;39.30;;;;;;;;;;4434951;32;20536;-92
2022/02/01 06:25:49;;;;;;;66.70;34.97;;;;;;;;;;4434782;32;20256;-91
2022/02/01 06:28:22;;;;;;;84.07;36.00;;;;;;;;;;4421000;32;20262;-85
2022/02/01 06:30:48;;;;;;;87.77;37.23;;;;;;;;;;4438138;32;20228;-84
2022/02/01 06:33:15;;;;;;;81.53;34.83;;;;;;;;;;4450599;32;20344;-86
2022/02/01 06:35:41;;;;;;;89.57;39.10;;;;;;;;;;4451291;32;20248;-84
2022/02/01 06:38:09;;;;;;;94.50;44.67;;;;;;;;;;4431284;32;20260;-83
2022/02/01 06:40:36;;;;;;;100.57;48.47;;;;;;;;;;4435379;32;20329;-85
2022/02/01 06:43:02;;;;;;;106.23;50.03;;;;;;;;;;4435070;32;20309;-84
2022/02/01 06:45:28;;;;;;;110.83;52.20;;;;;;;;;;4435194;32;20201;-83
2022/02/01 06:47:55;;;;;;;147.77;68.40;;;;;;;;;;4435335;32;20319;-84
2022/02/01 06:50:21;;;;;;;180.30;81.50;;;;;;;;;;4436278;32;20229;-84
2022/02/01 06:52:54;;;;;;;156.43;80.17;;;;;;;;;;4437922;32;20217;-86
2022/02/01 06:55:31;;;;;;;127.47;64.33;;;;;;;;;;4438575;32;20232;-83
2022/02/01 06:57:57;;;;;;;119.67;57.67;;;;;;;;;;4444793;32;20193;-84
2022/02/01 07:00:23;;;;;;;113.40;55.00;;;;;;;;;;4450803;32;20254;-84
2022/02/01 07:02:48;;;;;;;99.13;51.43;;;;;;;;;;4450220;32;20633;-81
2022/02/01 07:05:13;;;;;;;93.97;50.17;;;;;;;;;;4450522;32;20193;-82
2022/02/01 07:07:39;;;;;;;97.73;48.20;;;;;;;;;;4449302;32;20237;-83
2022/02/01 07:10:05;;;;;;;43.33;23.33;;;;;;;;;;4444635;32;20181;-83
2022/02/01 07:12:30;;;;;;;88.70;45.30;;;;;;;;;;4450028;32;20279;-84
2022/02/01 07:14:56;;;;;;;66.03;35.00;;;;;;;;;;4448816;32;20301;-85
2022/02/01 07:17:22;;;;;;;54.00;27.30;;;;;;;;;;4449259;32;20225;-83
2022/02/01 07:19:47;;;;;;;30.33;17.33;;;;;;;;;;4438561;32;20285;-87
2022/02/01 07:22:13;;;;;;;23.30;11.73;;;;;;;;;;4408871;32;20319;-87
2022/02/01 07:24:51;;;;;;;19.37;9.20;;;;;;;;;;4435150;32;20237;-84
2022/02/01 07:27:33;;;;;;;18.80;10.10;;;;;;;;;;4434377;32;20278;-84
2022/02/01 07:29:59;;;;;;;23.30;11.77;;;;;;;;;;4434751;32;20220;-84
2022/02/01 07:32:25;;;;;;;23.40;12.07;;;;;;;;;;4434736;32;20225;-85
2022/02/01 07:34:50;;;;;;;34.23;14.33;;;;;;;;;;4433405;32;20241;-84
2022/02/01 07:37:15;;;;;;;28.93;15.50;;;;;;;;;;4433223;32;20316;-92
2022/02/01 07:39:41;;;;;;;27.77;15.20;;;;;;;;;;4434532;32;20335;-88
2022/02/01 07:42:07;;;;;;;38.27;16.70;;;;;;;;;;4434969;32;20229;-92
2022/02/01 07:44:32;;;;;;;26.80;13.87;;;;;;;;;;4434821;32;20240;-83
2022/02/01 07:46:58;;;;;;;31.47;16.83;;;;;;;;;;4443789;32;20284;-92
2022/02/01 07:49:23;;;;;;;44.77;19.63;;;;;;;;;;4435609;32;20224;-88
2022/02/01 07:51:48;;;;;;;48.03;25.20;;;;;;;;;;4450132;32;20342;-88
2022/02/01 07:54:14;;;;;;;43.10;24.50;;;;;;;;;;4434837;32;20240;-94
2022/02/01 07:56:40;;;;;;;62.37;29.07;;;;;;;;;;4449507;32;20267;-85
2022/02/01 07:59:06;;;;;;;28.20;16.97;;;;;;;;;;4423330;32;20218;-86
2022/02/01 08:01:31;;;;;;;39.50;19.47;;;;;;;;;;4449383;32;20969;-88
2022/02/01 08:03:57;;;;;;;33.57;19.10;;;;;;;;;;4440318;32;20248;-90
2022/02/01 08:06:22;;;;;;;30.40;18.13;;;;;;;;;;4435131;32;20258;-89
2022/02/01 08:08:49;;;;;;;21.77;13.57;;;;;;;;;;4434979;32;20649;-92
2022/02/01 08:11:16;;;;;;;23.03;13.40;;;;;;;;;;4410249;32;20217;-84
2022/02/01 08:16:42;;;;;;;40.37;17.10;;;;;;;;;;4439464;32;20497;-93
2022/02/01 08:21:51;;;;;;;38.07;19.80;;;;;;;;;;4440822;32;20227;-83
2022/02/01 08:24:16;;;;;;;38.43;22.60;;;;;;;;;;4447257;32;20243;-90
2022/02/01 08:26:42;;;;;;;52.33;30.53;;;;;;;;;;4454703;32;20499;-88
2022/02/01 08:29:08;;;;;;;47.53;27.93;;;;;;;;;;4456131;32;20220;-94
2022/02/01 08:31:34;;;;;;;35.67;19.37;;;;;;;;;;4445751;32;20323;-90
2022/02/01 08:33:59;;;;;;;29.93;19.20;;;;;;;;;;4436827;32;20243;-93
2022/02/01 08:36:25;;;;;;;45.00;25.90;;;;;;;;;;4439387;32;20297;-83
2022/02/01 08:38:50;;;;;;;56.73;36.67;;;;;;;;;;4432857;32;20258;-87
2022/02/01 08:41:15;;;;;;;41.40;20.30;;;;;;;;;;4441619;32;20217;-95
2022/02/01 08:43:41;;;;;;;39.03;21.60;;;;;;;;;;4440503;32;20205;-92
2022/02/01 08:46:06;;;;;;;34.67;21.13;;;;;;;;;;4450719;32;20225;-82
2022/02/01 08:48:32;;;;;;;37.87;25.63;;;;;;;;;;4439317;32;20255;-89
2022/02/01 08:51:02;;;;;;;54.67;30.90;;;;;;;;;;4436772;32;20268;-80
2022/02/01 08:53:35;;;;;;;46.87;23.23;;;;;;;;;;4435412;32;20241;-82
2022/02/01 08:56:03;;;;;;;34.43;20.67;;;;;;;;;;4434461;32;20259;-81
2022/02/01 08:58:30;;;;;;;35.97;18.07;;;;;;;;;;4434739;32;20212;-81
2022/02/01 09:00:56;;;;;;;30.17;17.80;;;;;;;;;;4435515;32;20278;-90
2022/02/01 09:03:22;;;;;;;41.60;18.47;;;;;;;;;;4442251;32;20225;-87
2022/02/01 09:05:52;;;;;;;32.43;20.57;;;;;;;;;;4436512;32;20250;-86
2022/02/01 09:08:19;;;;;;;42.07;21.33;;;;;;;;;;4435841;32;20219;-87
2022/02/01 09:10:45;;;;;;;43.37;22.97;;;;;;;;;;4436428;32;20287;-83
2022/02/01 09:13:11;;;;;;;29.73;16.60;;;;;;;;;;4435466;32;20197;-86
2022/02/01 09:15:36;;;;;;;39.03;20.50;;;;;;;;;;4436098;32;20644;-83
2022/02/01 09:18:02;;;;;;;49.50;22.13;;;;;;;;;;4435667;32;20212;-86
2022/02/01 09:20:29;;;;;;;53.37;26.73;;;;;;;;;;4436063;32;20707;-83
2022/02/01 09:22:55;;;;;;;33.00;15.73;;;;;;;;;;4435741;32;20355;-86
2022/02/01 09:25:23;;;;;;;51.37;28.30;;;;;;;;;;4435206;32;20224;-84
2022/02/01 09:27:50;;;;;;;40.20;22.37;;;;;;;;;;4420108;32;20319;-88
2022/02/01 09:30:17;;;;;;;29.37;17.73;;;;;;;;;;4434790;32;20252;-87
2022/02/01 09:32:43;;;;;;;31.23;16.83;;;;;;;;;;4449727;32;20273;-84
2022/02/01 09:35:09;;;;;;;28.43;14.27;;;;;;;;;;4450093;32;20652;-86
2022/02/01 09:37:34;;;;;;;29.93;14.77;;;;;;;;;;4434414;32;20285;-91
2022/02/01 09:40:00;;;;;;;30.77;13.27;;;;;;;;;;4438025;32;20340;-80
2022/02/01 09:42:27;;;;;;;24.33;13.53;;;;;;;;;;4435125;32;20680;-87
2022/02/01 09:44:57;;;;;;;38.63;19.47;;;;;;;;;;4435770;32;20550;-83
2022/02/01 09:47:30;;;;;;;52.00;24.57;;;;;;;;;;4435265;32;20204;-87
2022/02/01 09:49:56;;;;;;;33.43;15.77;;;;;;;;;;4435986;32;20225;-85
2022/02/01 09:52:23;;;;;;;31.97;15.13;;;;;;;;;;4421408;32;20271;-88
2022/02/01 09:54:51;;;;;;;29.53;11.87;;;;;;;;;;4435356;32;20753;-85
2022/02/01 09:57:20;;;;;;;42.00;16.93;;;;;;;;;;4434574;32;20283;-86
2022/02/01 09:59:53;;;;;;;31.20;17.40;;;;;;;;;;4436212;32;20248;-85
2022/02/01 10:02:19;;;;;;;22.03;13.33;;;;;;;;;;4434588;32;20251;-85
2022/02/01 10:04:49;;;;;;;29.60;15.07;;;;;;;;;;4435128;32;20304;-83
2022/02/01 10:07:15;;;;;;;20.53;10.97;;;;;;;;;;4434751;32;20262;-90
2022/02/01 10:10:00;;;;;;;43.73;20.87;;;;;;;;;;4435100;32;20285;-83
2022/02/01 10:12:30;;;;;;;46.73;18.63;;;;;;;;;;4435096;32;20228;-82
2022/02/01 10:15:04;;;;;;;57.93;21.00;;;;;;;;;;4435330;32;20254;-79
2022/02/01 10:17:37;;;;;;;41.33;18.57;;;;;;;;;;4448413;32;20654;-82
2022/02/01 10:20:03;;;;;;;42.93;22.60;;;;;;;;;;4449999;32;20228;-83
2022/02/01 10:22:31;;;;;;;27.77;12.90;;;;;;;;;;4449438;32;20320;-83
2022/02/01 10:24:56;;;;;;;109.37;50.77;;;;;;;;;;4449777;32;20297;-86
2022/02/01 10:27:25;;;;;;;111.00;50.63;;;;;;;;;;4449895;32;20619;-86
2022/02/01 10:32:52;;;;;;;42.97;18.40;;;;;;;;;;4449441;32;20231;-82
2022/02/01 10:36:02;;;;;;;39.83;23.87;;;;;;;;;;4449519;32;20205;-82
2022/02/01 10:38:10;;;;;;;47.53;24.80;;;;;;;;;;4441448;32;20227;-82
2022/02/01 10:40:43;;;;;;;94.50;42.83;;;;;;;;;;4449761;32;20251;-85
2022/02/01 10:43:26;;;;;;;78.43;32.60;;;;;;;;;;4449756;32;20635;-81
2022/02/01 10:46:04;;;;;;;46.33;24.90;;;;;;;;;;4438412;32;20336;-87
2022/02/01 10:48:31;;;;;;;75.20;34.53;;;;;;;;;;4425245;32;20719;-82
2022/02/01 10:51:08;;;;;;;66.47;30.73;;;;;;;;;;4439557;32;20233;-81
2022/02/01 10:53:35;;;;;;;54.60;25.23;;;;;;;;;;4433607;32;20356;-83
2022/02/01 10:56:03;;;;;;;47.83;25.43;;;;;;;;;;4434764;32;20281;-83
2022/02/01 10:58:30;;;;;;;54.50;25.10;;;;;;;;;;4433969;32;20259;-82
2022/02/01 11:00:57;;;;;;;60.73;24.97;;;;;;;;;;4420296;32;20241;-86
2022/02/01 11:03:23;;;;;;;51.37;24.43;;;;;;;;;;4434034;32;20235;-82
2022/02/01 11:05:49;;;;;;;47.80;25.90;;;;;;;;;;4432071;32;20257;-87
2022/02/01 11:08:18;;;;;;;53.13;26.97;;;;;;;;;;4433692;32;20197;-82
2022/02/01 11:10:49;;;;;;;64.07;33.90;;;;;;;;;;4432449;32;20445;-84
2022/02/01 11:13:14;;;;;;;72.17;35.27;;;;;;;;;;4431723;32;20300;-86
2022/02/01 11:15:58;;;;;;;71.13;36.43;;;;;;;;;;4432858;32;20321;-81
2022/02/01 11:18:27;;;;;;;65.27;36.40;;;;;;;;;;4432163;32;21004;-81
2022/02/01 11:21:14;;;;;;;80.60;40.30;;;;;;;;;;4431702;32;20260;-79
2022/02/01 11:23:59;;;;;;;74.13;37.60;;;;;;;;;;4419548;32;20247;-80
2022/02/01 11:26:35;;;;;;;83.73;36.53;;;;;;;;;;4433638;32;20217;-82
2022/02/01 11:29:29;;;;;;;64.93;34.00;;;;;;;;;;4433299;32;20237;-82
2022/02/01 11:31:58;;;;;;;50.30;26.70;;;;;;;;;;4419837;32;20224;-80
2022/02/01 11:34:34;;;;;;;53.80;30.63;;;;;;;;;;4433052;32;20221;-81
2022/02/01 11:37:02;;;;;;;63.17;30.20;;;;;;;;;;4432710;32;20217;-85
2022/02/01 11:39:28;;;;;;;57.87;29.47;;;;;;;;;;4432218;32;20225;-83
2022/02/01 11:41:54;;;;;;;48.70;24.37;;;;;;;;;;4432168;32;20335;-85
2022/02/01 11:44:29;;;;;;;49.67;25.07;;;;;;;;;;4428630;32;20551;-80
2022/02/01 11:47:09;;;;;;;40.43;21.80;;;;;;;;;;4429941;32;20673;-82
2022/02/01 11:49:51;;;;;;;49.13;22.80;;;;;;;;;;4429940;32;20240;-84
2022/02/01 11:52:17;;;;;;;46.13;21.03;;;;;;;;;;4418644;32;20248;-84
2022/02/01 11:54:47;;;;;;;42.13;21.27;;;;;;;;;;4431758;32;20300;-92
2022/02/01 11:57:14;;;;;;;43.67;22.33;;;;;;;;;;4433175;32;20221;-84
2022/02/01 11:59:55;;;;;;;59.43;26.63;;;;;;;;;;4436318;32;20231;-88
2022/02/01 12:02:38;;;;;;;36.03;18.80;;;;;;;;;;4420610;32;20256;-84
2022/02/01 12:05:16;;;;;;;33.73;16.90;;;;;;;;;;4431725;32;20193;-85
2022/02/01 12:08:11;;;;;;;41.63;19.97;;;;;;;;;;4445407;32;20314;-87
2022/02/01 12:10:40;;;;;;;36.13;16.57;;;;;;;;;;4436023;32;20948;-83
2022/02/01 12:13:07;;;;;;;42.77;19.57;;;;;;;;;;4443802;32;20335;-85
2022/02/01 12:15:36;;;;;;;47.50;20.93;;;;;;;;;;4447823;32;20249;-84
2022/02/01 12:18:13;;;;;;;31.20;15.17;;;;;;;;;;4446469;32;20247;-82
2022/02/01 12:20:39;;;;;;;32.20;16.47;;;;;;;;;;4442137;32;20224;-86
2022/02/01 12:23:21;;;;;;;40.07;18.97;;;;;;;;;;4440433;32;20236;-86
2022/02/01 12:25:47;;;;;;;36.30;18.80;;;;;;;;;;4445063;32;20344;-88
2022/02/01 12:28:15;;;;;;;28.83;14.70;;;;;;;;;;4443358;32;20220;-88
2022/02/01 12:30:42;;;;;;;23.80;11.90;;;;;;;;;;4434329;32;20311;-87
2022/02/01 12:33:18;;;;;;;26.83;16.03;;;;;;;;;;4430942;32;20225;-84
2022/02/01 12:35:44;;;;;;;27.53;13.37;;;;;;;;;;4430996;32;20196;-86
2022/02/01 12:38:18;;;;;;;30.37;16.30;;;;;;;;;;4443234;32;20279;-86
2022/02/01 12:40:45;;;;;;;35.37;17.93;;;;;;;;;;4447023;32;20343;-87
2022/02/01 12:43:16;;;;;;;31.93;17.63;;;;;;;;;;4444634;32;20253;-90
2022/02/01 12:45:51;;;;;;;38.03;20.07;;;;;;;;;;4435903;32;20908;-89
2022/02/01 12:48:17;;;;;;;46.37;22.67;;;;;;;;;;4431176;32;20318;-89
2022/02/01 12:50:54;;;;;;;91.07;38.47;;;;;;;;;;4417303;32;20255;-85
2022/02/01 12:53:19;;;;;;;28.57;15.23;;;;;;;;;;4432051;32;20374;-79
2022/02/01 12:55:45;;;;;;;31.40;15.47;;;;;;;;;;4418028;32;20233;-79
2022/02/01 12:58:15;;;;;;;46.90;21.77;;;;;;;;;;4431874;32;20681;-78
2022/02/01 13:00:48;;;;;;;38.17;20.70;;;;;;;;;;4432186;32;20189;-81
2022/02/01 13:03:13;;;;;;;42.07;17.73;;;;;;;;;;4438961;32;20338;-80
2022/02/01 13:05:39;;;;;;;31.67;16.80;;;;;;;;;;4453228;32;20597;-83
2022/02/01 13:08:38;;;;;;;32.27;13.50;;;;;;;;;;4458811;32;20253;-81
2022/02/01 13:21:36;;;;;;;60.53;22.87;;;;;;;;;;4454117;32;20320;-81
2022/02/01 13:24:04;;;;;;;24.77;15.10;;;;;;;;;;4432403;32;20219;-81
2022/02/01 13:26:32;;;;;;;25.13;11.80;;;;;;;;;;4410720;32;20233;-89
2022/02/01 13:29:00;;;;;;;22.77;11.20;;;;;;;;;;4446326;32;20180;-82
2022/02/01 13:31:29;;;;;;;31.83;14.53;;;;;;;;;;4449933;32;20228;-82
2022/02/01 13:34:04;;;;;;;45.90;22.17;;;;;;;;;;4452798;32;20476;-85
2022/02/01 13:36:50;;;;;;;40.80;18.57;;;;;;;;;;4450953;32;20269;-87
2022/02/01 13:39:30;;;;;;;31.47;17.67;;;;;;;;;;4438244;32;20268;-81
2022/02/01 13:42:05;;;;;;;50.10;23.07;;;;;;;;;;4449810;32;20329;-90
2022/02/01 13:44:31;;;;;;;39.07;17.70;;;;;;;;;;4448078;32;20409;-82
2022/02/01 13:47:06;;;;;;;38.13;20.70;;;;;;;;;;4434677;32;20259;-90
2022/02/01 13:49:32;;;;;;;55.20;26.77;;;;;;;;;;4434907;32;20268;-88
2022/02/01 13:51:58;;;;;;;36.20;19.83;;;;;;;;;;4434648;32;20217;-85
2022/02/01 13:54:26;;;;;;;39.57;19.30;;;;;;;;;;4420919;32;20264;-86
2022/02/01 13:56:53;;;;;;;41.30;19.27;;;;;;;;;;4434666;32;20228;-79
2022/02/01 13:59:26;;;;;;;128.97;62.90;;;;;;;;;;4435489;32;20258;-80
2022/02/01 14:02:07;;;;;;;50.03;22.27;;;;;;;;;;4427842;32;20229;-80
2022/02/01 14:04:43;;;;;;;37.80;18.93;;;;;;;;;;4435025;32;20235;-79
2022/02/01 14:12:41;;;;;;;49.87;23.27;;;;;;;;;;4448312;32;20305;-80
2022/02/01 14:34:00;;;;;;;65.03;30.37;;;;;;;;;;4449717;32;20239;-80
2022/02/01 14:36:31;;;;;;;52.97;24.60;;;;;;;;;;4449693;32;20251;-81
2022/02/01 14:42:54;;;;;;;39.77;19.43;;;;;;;;;;4449655;32;20586;-80
2022/02/01 14:44:40;;;;;;;39.27;20.93;;;;;;;;;;4447243;32;20284;-81
2022/02/01 14:47:08;;;;;;;38.33;19.00;;;;;;;;;;4434020;32;20236;-80
2022/02/01 14:49:34;;;;;;;27.80;15.63;;;;;;;;;;4433869;32;20767;-80
2022/02/01 14:52:02;;;;;;;29.80;16.90;;;;;;;;;;4433555;32;20247;-80
2022/02/01 14:54:31;;;;;;;33.13;17.40;;;;;;;;;;4433911;32;20280;-81
2022/02/01 15:03:42;;;;;;;34.30;18.87;;;;;;;;;;4420618;32;20379;-80
2022/02/01 15:13:05;;;;;;;47.83;24.80;;;;;;;;;;4432433;32;20303;-80
2022/02/01 15:15:30;;;;;;;52.97;24.37;;;;;;;;;;4433363;32;20602;-80
2022/02/01 15:17:58;;;;;;;35.07;19.13;;;;;;;;;;4433642;32;20409;-80
2022/02/01 15:20:24;;;;;;;53.87;26.77;;;;;;;;;;4433720;32;20280;-80
2022/02/01 15:22:49;;;;;;;47.63;24.97;;;;;;;;;;4434441;32;20192;-80
2022/02/01 15:25:15;;;;;;;44.90;25.47;;;;;;;;;;4432285;32;20246;-81
2022/02/01 15:27:41;;;;;;;43.07;19.87;;;;;;;;;;4433771;32;20232;-80
2022/02/01 15:30:07;;;;;;;38.47;21.37;;;;;;;;;;4433622;32;20308;-80
2022/02/01 15:32:33;;;;;;;52.03;23.50;;;;;;;;;;4433637;32;20224;-80
2022/02/01 15:34:58;;;;;;;44.07;20.43;;;;;;;;;;4448995;32;20314;-81
2022/02/01 15:37:29;;;;;;;36.77;20.27;;;;;;;;;;4448676;32;20276;-80
2022/02/01 15:58:46;;;;;;;63.10;29.53;;;;;;;;;;4449136;32;20288;-80
2022/02/01 16:01:18;;;;;;;52.90;21.53;;;;;;;;;;4435401;32;20550;-80
2022/02/01 16:03:46;;;;;;;47.63;21.87;;;;;;;;;;4441332;32;20295;-80
2022/02/01 16:06:11;;;;;;;40.10;19.00;;;;;;;;;;4429783;32;20246;-78
2022/02/01 16:08:39;;;;;;;19.00;10.00;;;;;;;;;;4431892;32;20349;-80
2022/02/01 16:11:08;;;;;;;39.83;20.50;;;;;;;;;;4432817;32;20260;-80
2022/02/01 16:13:43;;;;;;;52.30;26.83;;;;;;;;;;4431434;32;20316;-81
2022/02/01 16:16:10;;;;;;;54.57;29.20;;;;;;;;;;4432616;32;20362;-80
2022/02/01 16:18:45;;;;;;;50.50;23.83;;;;;;;;;;4431504;32;20630;-80
2022/02/01 16:21:11;;;;;;;55.23;26.20;;;;;;;;;;4430080;32;20280;-80
2022/02/01 16:23:38;;;;;;;46.40;24.03;;;;;;;;;;4429995;32;20248;-79
2022/02/01 16:26:04;;;;;;;38.07;22.00;;;;;;;;;;4429446;32;20337;-80
2022/02/01 16:28:29;;;;;;;52.90;23.33;;;;;;;;;;4429625;32;20535;-80
2022/02/01 16:30:55;;;;;;;44.43;22.57;;;;;;;;;;4433779;32;20287;-80
2022/02/01 16:33:20;;;;;;;29.43;15.67;;;;;;;;;;4445148;32;20851;-80
2022/02/01 16:35:46;;;;;;;28.30;16.47;;;;;;;;;;4446122;32;20887;-80
2022/02/01 16:38:11;;;;;;;48.87;21.70;;;;;;;;;;4444573;32;20334;-80
2022/02/01 16:40:39;;;;;;;49.37;25.27;;;;;;;;;;4423017;32;20255;-81
2022/02/01 16:43:10;;;;;;;47.43;25.97;;;;;;;;;;4436392;32;20197;-80
2022/02/01 16:45:37;;;;;;;43.20;23.33;;;;;;;;;;4432097;32;20227;-80
2022/02/01 16:48:05;;;;;;;29.57;18.23;;;;;;;;;;4451842;32;20212;-80
2022/02/01 16:50:31;;;;;;;31.20;18.10;;;;;;;;;;4444168;32;20610;-80
2022/02/01 16:53:01;;;;;;;40.57;19.43;;;;;;;;;;4436620;32;20223;-80
2022/02/01 16:55:39;;;;;;;38.27;19.03;;;;;;;;;;4436073;32;20565;-80
2022/02/01 16:58:21;;;;;;;29.57;16.13;;;;;;;;;;4436068;32;20201;-82
2022/02/01 17:00:47;;;;;;;31.47;15.30;;;;;;;;;;4436197;32;20296;-80